sensor_id;sensor_type;location;lat;lon;timestamp;pressure;altitude;pressure_sealevel;temperature;humidity
1371;BME280;14306;49.942;11.570;2022-11-13T00:01:50;98758.88;;;4.92;93.02
1371;BME280;14306;49.942;11.570;2022-11-13T00:04:16;98762.94;;;4.83;93.56
1371;BME280;14306;49.942;11.570;2022-11-13T00:06:42;98771.78;;;4.95;92.83
1371;BME280;14306;49.942;11.570;2022-11-13T00:09:10;98759.78;;;4.86;93.21
1371;BME280;14306;49.942;11.570;2022-11-13T00:11:36;98754.41;;;4.86;92.50
1371;BME280;14306;49.942;11.570;2022-11-13T00:14:01;98755.47;;;4.74;93.39
1371;BME280;14306;49.942;11.570;2022-11-13T00:16:27;98759.81;;;4.75;92.94
1371;BME280;14306;49.942;11.570;2022-11-13T00:18:52;98743.00;;;4.68;92.88
1371;BME280;14306;49.942;11.570;2022-11-13T00:21:20;98756.75;;;4.60;93.71
1371;BME280;14306;49.942;11.570;2022-11-13T00:23:46;98755.13;;;4.70;94.11
1371;BME280;14306;49.942;11.570;2022-11-13T00:26:16;98745.09;;;4.77;92.92
1371;BME280;14306;49.942;11.570;2022-11-13T00:28:42;98750.56;;;4.82;92.45
1371;BME280;14306;49.942;11.570;2022-11-13T00:31:09;98754.75;;;4.67;92.18
1371;BME280;14306;49.942;11.570;2022-11-13T00:33:34;98715.09;;;4.57;92.67
1371;BME280;14306;49.942;11.570;2022-11-13T00:36:05;98743.78;;;4.68;91.96
1371;BME280;14306;49.942;11.570;2022-11-13T00:38:31;98744.50;;;4.52;92.74
1371;BME280;14306;49.942;11.570;2022-11-13T00:40:57;98737.50;;;4.51;91.50
1371;BME280;14306;49.942;11.570;2022-11-13T00:43:23;98743.78;;;4.45;91.83
1371;BME280;14306;49.942;11.570;2022-11-13T00:45:48;98739.13;;;4.41;92.27
1371;BME280;14306;49.942;11.570;2022-11-13T00:48:14;98719.28;;;4.18;91.93
1371;BME280;14306;49.942;11.570;2022-11-13T00:50:39;98711.13;;;4.13;92.04
1371;BME280;14306;49.942;11.570;2022-11-13T00:53:04;98729.06;;;4.24;92.64
1371;BME280;14306;49.942;11.570;2022-11-13T00:55:30;98724.75;;;4.23;92.04
1371;BME280;14306;49.942;11.570;2022-11-13T00:57:55;98719.63;;;4.22;92.73
1371;BME280;14306;49.942;11.570;2022-11-13T01:00:20;98716.78;;;4.05;92.27
1371;BME280;14306;49.942;11.570;2022-11-13T01:06:16;98741.91;;;3.81;91.66
1371;BME280;14306;49.942;11.570;2022-11-13T01:08:42;98727.28;;;3.66;91.04
1371;BME280;14306;49.942;11.570;2022-11-13T01:11:16;98740.84;;;3.53;91.64
1371;BME280;14306;49.942;11.570;2022-11-13T01:13:43;98734.19;;;3.44;91.37
1371;BME280;14306;49.942;11.570;2022-11-13T01:16:11;98731.16;;;3.22;92.58
1371;BME280;14306;49.942;11.570;2022-11-13T01:18:37;98737.47;;;3.10;93.13
1371;BME280;14306;49.942;11.570;2022-11-13T01:21:09;98720.47;;;3.04;93.01
1371;BME280;14306;49.942;11.570;2022-11-13T01:23:36;98720.84;;;2.90;92.79
1371;BME280;14306;49.942;11.570;2022-11-13T01:26:08;98737.91;;;3.07;92.18
1371;BME280;14306;49.942;11.570;2022-11-13T01:28:34;98721.28;;;2.87;91.68
1371;BME280;14306;49.942;11.570;2022-11-13T01:30:59;98725.34;;;2.89;92.00
1371;BME280;14306;49.942;11.570;2022-11-13T01:33:28;98720.97;;;2.77;92.68
1371;BME280;14306;49.942;11.570;2022-11-13T01:36:06;98722.53;;;2.84;92.11
1371;BME280;14306;49.942;11.570;2022-11-13T01:38:32;98714.28;;;2.68;92.70
1371;BME280;14306;49.942;11.570;2022-11-13T01:40:58;98716.88;;;2.74;91.69
1371;BME280;14306;49.942;11.570;2022-11-13T01:43:28;98709.28;;;2.71;92.26
1371;BME280;14306;49.942;11.570;2022-11-13T01:48:27;98704.63;;;2.67;93.18
1371;BME280;14306;49.942;11.570;2022-11-13T01:50:56;98692.66;;;2.69;92.59
1371;BME280;14306;49.942;11.570;2022-11-13T01:53:22;98693.31;;;2.65;92.57
1371;BME280;14306;49.942;11.570;2022-11-13T01:55:47;98684.25;;;2.66;92.04
1371;BME280;14306;49.942;11.570;2022-11-13T01:58:13;98680.69;;;2.54;92.39
1371;BME280;14306;49.942;11.570;2022-11-13T02:00:40;98688.41;;;2.62;92.33
1371;BME280;14306;49.942;11.570;2022-11-13T02:03:05;98681.81;;;2.46;92.81
1371;BME280;14306;49.942;11.570;2022-11-13T02:05:30;98676.59;;;2.51;92.21
1371;BME280;14306;49.942;11.570;2022-11-13T02:07:56;98683.72;;;2.39;92.66
1371;BME280;14306;49.942;11.570;2022-11-13T02:10:21;98669.16;;;2.35;92.67
1371;BME280;14306;49.942;11.570;2022-11-13T02:12:49;98671.03;;;2.53;92.12
1371;BME280;14306;49.942;11.570;2022-11-13T02:15:15;98670.81;;;2.54;91.88
1371;BME280;14306;49.942;11.570;2022-11-13T02:17:43;98666.50;;;2.35;93.39
1371;BME280;14306;49.942;11.570;2022-11-13T02:20:11;98659.97;;;2.31;92.51
1371;BME280;14306;49.942;11.570;2022-11-13T02:22:44;98652.50;;;2.15;92.81
1371;BME280;14306;49.942;11.570;2022-11-13T02:25:14;98653.31;;;2.16;92.35
1371;BME280;14306;49.942;11.570;2022-11-13T02:27:46;98652.56;;;2.09;92.25
1371;BME280;14306;49.942;11.570;2022-11-13T02:30:13;98645.97;;;2.11;92.26
1371;BME280;14306;49.942;11.570;2022-11-13T02:32:48;98648.03;;;2.09;92.12
1371;BME280;14306;49.942;11.570;2022-11-13T02:35:34;98639.72;;;1.99;92.28
1371;BME280;14306;49.942;11.570;2022-11-13T02:38:03;98644.78;;;2.07;91.58
1371;BME280;14306;49.942;11.570;2022-11-13T02:40:31;98642.13;;;2.01;91.89
1371;BME280;14306;49.942;11.570;2022-11-13T02:42:56;98644.50;;;2.15;92.63
1371;BME280;14306;49.942;11.570;2022-11-13T02:45:22;98640.41;;;2.31;91.69
1371;BME280;14306;49.942;11.570;2022-11-13T02:47:47;98651.06;;;2.37;92.10
1371;BME280;14306;49.942;11.570;2022-11-13T02:50:14;98630.47;;;2.20;92.21
1371;BME280;14306;49.942;11.570;2022-11-13T02:52:40;98629.56;;;2.08;92.89
1371;BME280;14306;49.942;11.570;2022-11-13T02:55:05;98632.75;;;2.16;92.57
1371;BME280;14306;49.942;11.570;2022-11-13T02:57:31;98631.25;;;2.02;92.94
1371;BME280;14306;49.942;11.570;2022-11-13T02:59:56;98627.13;;;1.82;93.72
1371;BME280;14306;49.942;11.570;2022-11-13T03:02:22;98613.38;;;1.78;93.02
1371;BME280;14306;49.942;11.570;2022-11-13T03:04:47;98631.22;;;1.84;93.22
1371;BME280;14306;49.942;11.570;2022-11-13T03:07:13;98630.75;;;1.87;93.03
1371;BME280;14306;49.942;11.570;2022-11-13T03:09:39;98623.56;;;2.12;92.41
1371;BME280;14306;49.942;11.570;2022-11-13T03:12:06;98621.66;;;2.19;90.96
1371;BME280;14306;49.942;11.570;2022-11-13T03:14:32;98622.44;;;2.20;90.81
1371;BME280;14306;49.942;11.570;2022-11-13T03:16:57;98621.38;;;2.03;92.09
1371;BME280;14306;49.942;11.570;2022-11-13T03:19:23;98631.28;;;2.20;91.61
1371;BME280;14306;49.942;11.570;2022-11-13T03:21:48;98625.47;;;2.05;91.69
1371;BME280;14306;49.942;11.570;2022-11-13T03:24:14;98623.34;;;2.14;91.08
1371;BME280;14306;49.942;11.570;2022-11-13T03:26:39;98616.03;;;2.03;91.27
1371;BME280;14306;49.942;11.570;2022-11-13T03:29:04;98618.44;;;2.11;91.03
1371;BME280;14306;49.942;11.570;2022-11-13T03:31:30;98628.41;;;1.97;91.55
1371;BME280;14306;49.942;11.570;2022-11-13T03:33:55;98619.28;;;1.87;91.11
1371;BME280;14306;49.942;11.570;2022-11-13T03:36:21;98622.53;;;1.89;91.50
1371;BME280;14306;49.942;11.570;2022-11-13T03:38:46;98621.59;;;2.01;91.83
1371;BME280;14306;49.942;11.570;2022-11-13T03:41:11;98604.03;;;1.94;91.12
1371;BME280;14306;49.942;11.570;2022-11-13T03:43:41;98608.31;;;1.95;91.54
1371;BME280;14306;49.942;11.570;2022-11-13T03:46:06;98613.00;;;1.99;91.32
1371;BME280;14306;49.942;11.570;2022-11-13T03:48:32;98614.91;;;1.92;90.88
1371;BME280;14306;49.942;11.570;2022-11-13T03:50:57;98614.91;;;1.92;91.49
1371;BME280;14306;49.942;11.570;2022-11-13T03:53:23;98612.31;;;1.86;91.09
1371;BME280;14306;49.942;11.570;2022-11-13T03:55:48;98599.91;;;1.91;90.16
1371;BME280;14306;49.942;11.570;2022-11-13T03:58:14;98604.72;;;1.58;91.01
1371;BME280;14306;49.942;11.570;2022-11-13T04:00:41;98605.97;;;1.56;91.53
1371;BME280;14306;49.942;11.570;2022-11-13T04:03:07;98604.03;;;1.69;91.08
1371;BME280;14306;49.942;11.570;2022-11-13T04:05:32;98596.06;;;1.63;91.05
1371;BME280;14306;49.942;11.570;2022-11-13T04:07:58;98600.66;;;1.49;91.75
1371;BME280;14306;49.942;11.570;2022-11-13T04:10:23;98591.44;;;1.52;91.37
1371;BME280;14306;49.942;11.570;2022-11-13T04:12:49;98602.75;;;1.47;91.61
1371;BME280;14306;49.942;11.570;2022-11-13T04:15:15;98590.94;;;1.37;92.19
1371;BME280;14306;49.942;11.570;2022-11-13T04:17:40;98589.69;;;1.39;91.73
1371;BME280;14306;49.942;11.570;2022-11-13T04:20:06;98587.22;;;1.38;91.23
1371;BME280;14306;49.942;11.570;2022-11-13T04:22:32;98585.88;;;1.29;91.52
1371;BME280;14306;49.942;11.570;2022-11-13T04:24:57;98587.72;;;1.28;91.68
1371;BME280;14306;49.942;11.570;2022-11-13T04:27:23;98575.72;;;1.37;91.66
1371;BME280;14306;49.942;11.570;2022-11-13T04:29:48;98578.88;;;1.28;92.38
1371;BME280;14306;49.942;11.570;2022-11-13T04:32:13;98564.75;;;1.27;91.59
1371;BME280;14306;49.942;11.570;2022-11-13T04:34:39;98559.47;;;1.14;92.39
1371;BME280;14306;49.942;11.570;2022-11-13T04:37:04;98562.94;;;1.21;91.54
1371;BME280;14306;49.942;11.570;2022-11-13T04:39:29;98572.69;;;1.34;91.18
1371;BME280;14306;49.942;11.570;2022-11-13T04:41:55;98562.72;;;1.23;90.57
1371;BME280;14306;49.942;11.570;2022-11-13T04:44:39;98568.22;;;1.28;90.30
1371;BME280;14306;49.942;11.570;2022-11-13T04:47:04;98568.81;;;1.30;90.53
1371;BME280;14306;49.942;11.570;2022-11-13T04:49:30;98556.53;;;1.22;90.93
1371;BME280;14306;49.942;11.570;2022-11-13T04:51:55;98557.44;;;1.16;91.12
1371;BME280;14306;49.942;11.570;2022-11-13T04:54:20;98557.75;;;1.26;91.20
1371;BME280;14306;49.942;11.570;2022-11-13T04:56:46;98557.00;;;1.19;91.24
1371;BME280;14306;49.942;11.570;2022-11-13T04:59:11;98558.41;;;1.22;90.89
1371;BME280;14306;49.942;11.570;2022-11-13T05:01:36;98553.88;;;1.22;91.04
1371;BME280;14306;49.942;11.570;2022-11-13T05:04:02;98551.31;;;1.09;90.57
1371;BME280;14306;49.942;11.570;2022-11-13T05:06:28;98548.22;;;1.12;91.13
1371;BME280;14306;49.942;11.570;2022-11-13T05:08:53;98563.88;;;1.02;90.47
1371;BME280;14306;49.942;11.570;2022-11-13T05:11:19;98563.50;;;0.99;90.40
1371;BME280;14306;49.942;11.570;2022-11-13T05:13:44;98559.53;;;1.08;90.23
1371;BME280;14306;49.942;11.570;2022-11-13T05:16:11;98557.34;;;0.98;90.85
1371;BME280;14306;49.942;11.570;2022-11-13T05:18:37;98565.75;;;1.02;90.25
1371;BME280;14306;49.942;11.570;2022-11-13T05:21:04;98565.41;;;0.85;90.89
1371;BME280;14306;49.942;11.570;2022-11-13T05:23:30;98556.50;;;1.04;90.78
1371;BME280;14306;49.942;11.570;2022-11-13T05:26:06;98559.47;;;0.83;91.10
1371;BME280;14306;49.942;11.570;2022-11-13T05:28:32;98552.47;;;0.89;89.94
1371;BME280;14306;49.942;11.570;2022-11-13T05:33:29;98537.09;;;0.84;90.42
1371;BME280;14306;49.942;11.570;2022-11-13T05:36:00;98536.22;;;0.97;89.96
1371;BME280;14306;49.942;11.570;2022-11-13T05:38:25;98546.09;;;0.90;90.64
1371;BME280;14306;49.942;11.570;2022-11-13T05:40:51;98538.72;;;0.92;90.36
1371;BME280;14306;49.942;11.570;2022-11-13T05:43:17;98537.41;;;1.07;90.01
1371;BME280;14306;49.942;11.570;2022-11-13T05:45:42;98531.22;;;1.07;90.26
1371;BME280;14306;49.942;11.570;2022-11-13T05:48:07;98533.66;;;0.84;90.30
1371;BME280;14306;49.942;11.570;2022-11-13T05:50:33;98523.56;;;0.86;90.42
1371;BME280;14306;49.942;11.570;2022-11-13T05:52:58;98521.53;;;0.88;90.98
1371;BME280;14306;49.942;11.570;2022-11-13T05:55:23;98520.88;;;0.92;89.90
1371;BME280;14306;49.942;11.570;2022-11-13T05:57:49;98526.91;;;0.75;90.21
1371;BME280;14306;49.942;11.570;2022-11-13T06:00:14;98517.03;;;0.82;89.83
1371;BME280;14306;49.942;11.570;2022-11-13T06:02:40;98519.13;;;0.80;89.85
1371;BME280;14306;49.942;11.570;2022-11-13T06:05:06;98509.66;;;0.84;90.84
1371;BME280;14306;49.942;11.570;2022-11-13T06:07:31;98498.41;;;0.75;89.75
1371;BME280;14306;49.942;11.570;2022-11-13T06:09:56;98495.81;;;0.69;90.56
1371;BME280;14306;49.942;11.570;2022-11-13T06:12:22;98501.50;;;0.72;90.42
1371;BME280;14306;49.942;11.570;2022-11-13T06:14:47;98500.06;;;0.76;90.63
1371;BME280;14306;49.942;11.570;2022-11-13T06:17:13;98493.72;;;0.71;90.67
1371;BME280;14306;49.942;11.570;2022-11-13T06:19:38;98486.59;;;0.65;90.75
1371;BME280;14306;49.942;11.570;2022-11-13T06:22:03;98480.66;;;0.69;90.93
1371;BME280;14306;49.942;11.570;2022-11-13T06:24:28;98477.09;;;0.75;91.69
1371;BME280;14306;49.942;11.570;2022-11-13T06:26:54;98483.63;;;0.79;89.92
1371;BME280;14306;49.942;11.570;2022-11-13T06:29:19;98482.38;;;0.88;90.54
1371;BME280;14306;49.942;11.570;2022-11-13T06:31:44;98473.84;;;0.73;90.87
1371;BME280;14306;49.942;11.570;2022-11-13T06:34:10;98479.44;;;0.90;91.30
1371;BME280;14306;49.942;11.570;2022-11-13T06:36:36;98488.91;;;0.92;91.17
1371;BME280;14306;49.942;11.570;2022-11-13T06:39:05;98499.50;;;0.99;90.93
1371;BME280;14306;49.942;11.570;2022-11-13T06:41:30;98488.09;;;1.16;90.31
1371;BME280;14306;49.942;11.570;2022-11-13T06:43:57;98493.56;;;1.21;90.44
1371;BME280;14306;49.942;11.570;2022-11-13T06:46:24;98490.53;;;1.18;90.41
1371;BME280;14306;49.942;11.570;2022-11-13T06:48:50;98491.88;;;1.27;90.35
1371;BME280;14306;49.942;11.570;2022-11-13T06:51:19;98497.13;;;1.40;90.46
1371;BME280;14306;49.942;11.570;2022-11-13T06:53:45;98492.81;;;1.39;90.18
1371;BME280;14306;49.942;11.570;2022-11-13T06:56:10;98496.72;;;1.61;90.69
1371;BME280;14306;49.942;11.570;2022-11-13T06:58:36;98493.69;;;2.29;91.03
1371;BME280;14306;49.942;11.570;2022-11-13T07:01:11;98495.00;;;3.96;92.14
1371;BME280;14306;49.942;11.570;2022-11-13T07:03:37;98487.94;;;4.86;91.16
1371;BME280;14306;49.942;11.570;2022-11-13T07:06:10;98483.00;;;5.77;89.37
1371;BME280;14306;49.942;11.570;2022-11-13T07:08:40;98483.50;;;5.74;86.00
1371;BME280;14306;49.942;11.570;2022-11-13T07:11:10;98475.13;;;7.26;85.40
1371;BME280;14306;49.942;11.570;2022-11-13T07:13:37;98472.03;;;7.39;84.29
1371;BME280;14306;49.942;11.570;2022-11-13T07:16:04;98479.53;;;7.37;81.10
1371;BME280;14306;49.942;11.570;2022-11-13T07:18:30;98472.66;;;7.51;80.01
1371;BME280;14306;49.942;11.570;2022-11-13T07:20:56;98470.66;;;8.19;81.33
1371;BME280;14306;49.942;11.570;2022-11-13T07:23:22;98477.22;;;9.10;80.94
1371;BME280;14306;49.942;11.570;2022-11-13T07:25:47;98470.03;;;7.61;80.97
1371;BME280;14306;49.942;11.570;2022-11-13T07:28:13;98463.69;;;9.00;76.38
1371;BME280;14306;49.942;11.570;2022-11-13T07:30:38;98471.56;;;9.82;80.37
1371;BME280;14306;49.942;11.570;2022-11-13T07:33:04;98463.16;;;10.77;70.92
1371;BME280;14306;49.942;11.570;2022-11-13T07:35:30;98464.53;;;10.74;73.91
1371;BME280;14306;49.942;11.570;2022-11-13T07:37:56;98471.53;;;10.80;72.32
1371;BME280;14306;49.942;11.570;2022-11-13T07:40:22;98456.44;;;9.41;77.05
1371;BME280;14306;49.942;11.570;2022-11-13T07:42:55;98464.50;;;10.79;76.62
1371;BME280;14306;49.942;11.570;2022-11-13T07:45:20;98468.63;;;11.49;70.39
1371;BME280;14306;49.942;11.570;2022-11-13T07:47:46;98479.25;;;11.07;68.77
1371;BME280;14306;49.942;11.570;2022-11-13T07:50:11;98472.81;;;11.75;72.86
1371;BME280;14306;49.942;11.570;2022-11-13T07:52:36;98454.91;;;11.40;72.51
1371;BME280;14306;49.942;11.570;2022-11-13T07:55:02;98452.78;;;11.32;75.66
1371;BME280;14306;49.942;11.570;2022-11-13T07:57:27;98450.69;;;10.81;70.02
1371;BME280;14306;49.942;11.570;2022-11-13T07:59:52;98445.25;;;12.81;68.50
1371;BME280;14306;49.942;11.570;2022-11-13T08:02:18;98434.97;;;11.55;68.48
1371;BME280;14306;49.942;11.570;2022-11-13T08:04:43;98440.31;;;13.25;66.32
1371;BME280;14306;49.942;11.570;2022-11-13T08:07:10;98436.81;;;12.82;60.09
1371;BME280;14306;49.942;11.570;2022-11-13T08:09:36;98428.00;;;11.77;71.64
1371;BME280;14306;49.942;11.570;2022-11-13T08:12:01;98422.47;;;12.58;64.17
1371;BME280;14306;49.942;11.570;2022-11-13T08:14:26;98428.91;;;12.86;65.56
1371;BME280;14306;49.942;11.570;2022-11-13T08:16:52;98434.28;;;13.09;66.98
1371;BME280;14306;49.942;11.570;2022-11-13T08:19:17;98427.44;;;13.62;63.03
1371;BME280;14306;49.942;11.570;2022-11-13T08:21:42;98435.91;;;13.29;63.11
1371;BME280;14306;49.942;11.570;2022-11-13T08:24:08;98434.94;;;13.70;62.31
1371;BME280;14306;49.942;11.570;2022-11-13T08:26:36;98436.09;;;13.51;61.24
1371;BME280;14306;49.942;11.570;2022-11-13T08:29:02;98438.63;;;13.93;60.74
1371;BME280;14306;49.942;11.570;2022-11-13T08:31:27;98431.97;;;13.35;62.55
1371;BME280;14306;49.942;11.570;2022-11-13T08:33:53;98429.34;;;13.30;58.32
1371;BME280;14306;49.942;11.570;2022-11-13T08:36:18;98434.38;;;13.87;60.37
1371;BME280;14306;49.942;11.570;2022-11-13T08:38:43;98398.53;;;13.16;60.59
1371;BME280;14306;49.942;11.570;2022-11-13T08:41:09;98430.13;;;14.40;54.93
1371;BME280;14306;49.942;11.570;2022-11-13T08:43:34;98426.34;;;14.76;53.07
1371;BME280;14306;49.942;11.570;2022-11-13T08:45:59;98405.44;;;13.91;56.54
1371;BME280;14306;49.942;11.570;2022-11-13T08:48:25;98411.31;;;14.52;56.43
1371;BME280;14306;49.942;11.570;2022-11-13T08:50:52;98400.03;;;14.31;51.16
1371;BME280;14306;49.942;11.570;2022-11-13T08:53:18;98388.75;;;13.65;57.08
1371;BME280;14306;49.942;11.570;2022-11-13T08:55:44;98365.53;;;11.20;63.58
1371;BME280;14306;49.942;11.570;2022-11-13T08:58:09;98349.22;;;10.05;65.99
1371;BME280;14306;49.942;11.570;2022-11-13T09:00:34;98373.81;;;10.67;65.01
1371;BME280;14306;49.942;11.570;2022-11-13T09:03:00;98364.63;;;10.14;68.08
1371;BME280;14306;49.942;11.570;2022-11-13T09:05:26;98369.03;;;9.85;69.62
1371;BME280;14306;49.942;11.570;2022-11-13T09:07:58;98355.88;;;9.39;70.08
1371;BME280;14306;49.942;11.570;2022-11-13T09:10:24;98355.16;;;8.16;71.37
1371;BME280;14306;49.942;11.570;2022-11-13T09:13:00;98350.22;;;8.75;71.19
1371;BME280;14306;49.942;11.570;2022-11-13T09:15:27;98351.84;;;8.91;70.51
1371;BME280;14306;49.942;11.570;2022-11-13T09:18:01;98338.31;;;8.91;70.44
1371;BME280;14306;49.942;11.570;2022-11-13T09:20:29;98337.50;;;8.86;70.42
1371;BME280;14306;49.942;11.570;2022-11-13T09:22:58;98337.53;;;8.71;70.25
1371;BME280;14306;49.942;11.570;2022-11-13T09:25:23;98327.78;;;8.65;70.94
1371;BME280;14306;49.942;11.570;2022-11-13T09:27:57;98327.81;;;8.80;69.77
1371;BME280;14306;49.942;11.570;2022-11-13T09:30:23;98318.63;;;8.81;71.86
1371;BME280;14306;49.942;11.570;2022-11-13T09:32:55;98315.91;;;8.56;70.84
1371;BME280;14306;49.942;11.570;2022-11-13T09:35:23;98309.19;;;8.88;70.81
1371;BME280;14306;49.942;11.570;2022-11-13T09:38:02;98315.13;;;9.00;70.83
1371;BME280;14306;49.942;11.570;2022-11-13T09:40:52;98306.44;;;9.18;70.29
1371;BME280;14306;49.942;11.570;2022-11-13T09:43:33;98292.41;;;9.06;69.82
1371;BME280;14306;49.942;11.570;2022-11-13T09:46:05;98295.66;;;9.08;69.39
1371;BME280;14306;49.942;11.570;2022-11-13T09:48:37;98298.34;;;9.08;70.12
1371;BME280;14306;49.942;11.570;2022-11-13T09:51:10;98282.59;;;9.45;69.08
1371;BME280;14306;49.942;11.570;2022-11-13T09:53:38;98293.22;;;9.17;70.32
1371;BME280;14306;49.942;11.570;2022-11-13T09:56:21;98297.75;;;9.46;70.04
1371;BME280;14306;49.942;11.570;2022-11-13T09:58:56;98304.97;;;9.61;69.24
1371;BME280;14306;49.942;11.570;2022-11-13T10:02:07;98299.44;;;10.06;66.91
1371;BME280;14306;49.942;11.570;2022-11-13T10:05:30;98292.88;;;10.17;64.94
1371;BME280;14306;49.942;11.570;2022-11-13T10:10:54;98300.13;;;10.26;65.25
1371;BME280;14306;49.942;11.570;2022-11-13T10:13:23;98297.78;;;10.53;65.18
1371;BME280;14306;49.942;11.570;2022-11-13T10:15:52;98299.94;;;10.90;62.63
1371;BME280;14306;49.942;11.570;2022-11-13T10:18:28;98291.34;;;10.83;63.15
1371;BME280;14306;49.942;11.570;2022-11-13T10:21:13;98280.56;;;10.73;63.55
1371;BME280;14306;49.942;11.570;2022-11-13T10:23:43;98289.94;;;10.90;63.84
1371;BME280;14306;49.942;11.570;2022-11-13T10:26:17;98306.03;;;11.34;60.40
1371;BME280;14306;49.942;11.570;2022-11-13T10:28:43;98305.66;;;11.45;60.51
1371;BME280;14306;49.942;11.570;2022-11-13T10:31:10;98308.22;;;11.84;59.79
1371;BME280;14306;49.942;11.570;2022-11-13T10:33:36;98301.38;;;11.68;59.94
1371;BME280;14306;49.942;11.570;2022-11-13T10:38:39;98295.94;;;11.68;60.12
1371;BME280;14306;49.942;11.570;2022-11-13T10:41:12;98299.78;;;11.85;60.21
1371;BME280;14306;49.942;11.570;2022-11-13T10:43:53;98307.09;;;12.09;58.98
1371;BME280;14306;49.942;11.570;2022-11-13T10:46:24;98304.72;;;12.26;58.05
1371;BME280;14306;49.942;11.570;2022-11-13T10:48:50;98297.31;;;12.31;58.48
1371;BME280;14306;49.942;11.570;2022-11-13T10:51:23;98294.31;;;12.33;58.72
1371;BME280;14306;49.942;11.570;2022-11-13T10:53:50;98301.88;;;12.54;56.53
1371;BME280;14306;49.942;11.570;2022-11-13T10:56:26;98299.03;;;12.78;55.73
1371;BME280;14306;49.942;11.570;2022-11-13T10:59:16;98295.13;;;12.52;57.63
1371;BME280;14306;49.942;11.570;2022-11-13T11:01:44;98293.97;;;13.08;55.51
1371;BME280;14306;49.942;11.570;2022-11-13T11:04:20;98287.59;;;13.58;53.94
1371;BME280;14306;49.942;11.570;2022-11-13T11:06:46;98302.03;;;13.86;52.62
1371;BME280;14306;49.942;11.570;2022-11-13T11:09:22;98291.22;;;13.94;53.24
1371;BME280;14306;49.942;11.570;2022-11-13T11:17:43;98272.75;;;14.32;51.49
1371;BME280;14306;49.942;11.570;2022-11-13T11:22:52;98263.63;;;14.36;51.85
1371;BME280;14306;49.942;11.570;2022-11-13T11:27:53;98255.88;;;14.65;51.47
1371;BME280;14306;49.942;11.570;2022-11-13T11:30:22;98240.13;;;14.62;51.10
1371;BME280;14306;49.942;11.570;2022-11-13T11:35:56;98234.94;;;14.74;51.67
1371;BME280;14306;49.942;11.570;2022-11-13T11:41:14;98235.47;;;15.07;51.78
1371;BME280;14306;49.942;11.570;2022-11-13T11:43:54;98213.69;;;14.85;51.92
1371;BME280;14306;49.942;11.570;2022-11-13T11:46:26;98216.72;;;15.36;51.04
1371;BME280;14306;49.942;11.570;2022-11-13T11:48:58;98219.66;;;15.48;50.47
1371;BME280;14306;49.942;11.570;2022-11-13T11:51:33;98224.63;;;15.46;50.57
1371;BME280;14306;49.942;11.570;2022-11-13T11:56:34;98221.97;;;15.32;51.25
1371;BME280;14306;49.942;11.570;2022-11-13T12:07:21;98218.16;;;15.81;50.78
1371;BME280;14306;49.942;11.570;2022-11-13T12:09:54;98209.44;;;15.62;50.89
1371;BME280;14306;49.942;11.570;2022-11-13T12:12:39;98207.59;;;15.88;50.49
1371;BME280;14306;49.942;11.570;2022-11-13T12:15:17;98208.63;;;15.62;50.70
1371;BME280;14306;49.942;11.570;2022-11-13T12:17:56;98197.91;;;15.82;51.27
1371;BME280;14306;49.942;11.570;2022-11-13T12:23:01;98181.00;;;15.63;51.54
1371;BME280;14306;49.942;11.570;2022-11-13T12:26:09;98174.44;;;15.73;51.11
1371;BME280;14306;49.942;11.570;2022-11-13T12:28:34;98175.75;;;15.84;51.37
1371;BME280;14306;49.942;11.570;2022-11-13T12:34:24;98156.66;;;15.92;52.05
1371;BME280;14306;49.942;11.570;2022-11-13T12:36:50;98150.47;;;15.70;51.20
1371;BME280;14306;49.942;11.570;2022-11-13T12:39:26;98147.72;;;15.52;50.62
1371;BME280;14306;49.942;11.570;2022-11-13T12:42:18;98146.31;;;15.72;50.34
1371;BME280;14306;49.942;11.570;2022-11-13T12:44:58;98143.91;;;15.79;50.27
1371;BME280;14306;49.942;11.570;2022-11-13T12:47:26;98138.75;;;15.61;50.22
1371;BME280;14306;49.942;11.570;2022-11-13T12:50:05;98124.44;;;15.55;50.50
1371;BME280;14306;49.942;11.570;2022-11-13T12:52:43;98121.34;;;15.48;50.45
1371;BME280;14306;49.942;11.570;2022-11-13T12:55:29;98130.06;;;15.58;50.17
1371;BME280;14306;49.942;11.570;2022-11-13T12:58:06;98111.56;;;15.47;50.18
1371;BME280;14306;49.942;11.570;2022-11-13T13:00:33;98109.34;;;15.57;49.94
1371;BME280;14306;49.942;11.570;2022-11-13T13:03:16;98113.50;;;15.55;49.67
1371;BME280;14306;49.942;11.570;2022-11-13T13:06:03;98111.13;;;15.71;49.61
1371;BME280;14306;49.942;11.570;2022-11-13T13:11:17;98114.31;;;15.64;49.66
1371;BME280;14306;49.942;11.570;2022-11-13T13:13:51;98110.63;;;15.52;49.71
1371;BME280;14306;49.942;11.570;2022-11-13T13:16:22;98111.28;;;15.66;50.08
1371;BME280;14306;49.942;11.570;2022-11-13T13:18:49;98108.41;;;15.71;49.36
1371;BME280;14306;49.942;11.570;2022-11-13T13:21:16;98098.06;;;15.50;48.79
1371;BME280;14306;49.942;11.570;2022-11-13T13:23:45;98097.41;;;15.45;49.06
1371;BME280;14306;49.942;11.570;2022-11-13T13:26:22;98091.31;;;15.48;48.95
1371;BME280;14306;49.942;11.570;2022-11-13T13:29:20;98097.09;;;15.46;48.82
1371;BME280;14306;49.942;11.570;2022-11-13T13:34:42;98086.91;;;15.30;49.01
1371;BME280;14306;49.942;11.570;2022-11-13T13:37:20;98077.13;;;15.29;49.33
1371;BME280;14306;49.942;11.570;2022-11-13T13:39:55;98076.66;;;15.27;49.40
1371;BME280;14306;49.942;11.570;2022-11-13T13:45:36;98071.34;;;15.30;49.42
1371;BME280;14306;49.942;11.570;2022-11-13T13:48:09;98067.31;;;15.19;49.21
1371;BME280;14306;49.942;11.570;2022-11-13T13:50:41;98062.16;;;15.18;49.32
1371;BME280;14306;49.942;11.570;2022-11-13T13:53:11;98052.88;;;15.19;49.31
1371;BME280;14306;49.942;11.570;2022-11-13T13:55:44;98056.69;;;15.18;49.93
1371;BME280;14306;49.942;11.570;2022-11-13T13:58:15;98060.06;;;15.15;50.19
1371;BME280;14306;49.942;11.570;2022-11-13T14:00:41;98062.97;;;15.18;50.38
1371;BME280;14306;49.942;11.570;2022-11-13T14:03:19;98058.31;;;15.10;50.53
1371;BME280;14306;49.942;11.570;2022-11-13T14:05:45;98054.88;;;14.96;50.64
1371;BME280;14306;49.942;11.570;2022-11-13T14:08:21;98056.16;;;14.90;50.99
1371;BME280;14306;49.942;11.570;2022-11-13T14:10:48;98054.53;;;14.89;51.27
1371;BME280;14306;49.942;11.570;2022-11-13T14:13:21;98059.66;;;14.91;51.04